Tetide — IVTN — position and weather

sailwx.info

Track history (hours):
 
Tides and Currents Weather Stations Pressure Air Temp Water Temp Dewpoint Dewpoint Depression Visibility Wind Speed Wind Dir Waves Ship Positions

Tetide

Last reported at 2014-Jul-30 16:17 UTC. Time now 2014-Jul-31 21:40 UTC.
Position N 40°55' E 013°29'.

Length 70 m; draft 3.6 m.

Type: Passenger vessel. MMSI: 247043100.

Date/timePositionNaut miles runAvg speedWind from/ knotsBaromVisibWave heightAir tempDewpointWater temp
2014-Jul-30 16:17N 40°55' E 013°29'21 1.1
2014-Jul-29 21:27N 41°15' E 013°37'0 0.0
2014-Jul-29 18:34N 41°15' E 013°37'4 3.8
2014-Jul-29 17:26N 41°11' E 013°35'1314.4
2014-Jul-29 16:34N 40°59' E 013°30'  
2014-Jul-27 08:13N 40°59' E 013°31'17 3.2
2014-Jul-27 03:05N 41°15' E 013°37'0 0.0
2014-Jul-27 02:07N 41°15' E 013°37'0 0.0
2014-Jul-26 19:12N 41°15' E 013°37'0 0.0
2014-Jul-26 18:33N 41°15' E 013°37'1 1.4
2014-Jul-26 17:33N 41°14' E 013°37'1514.7
2014-Jul-26 16:33N 40°60' E 013°30'1211.7
2014-Jul-26 15:29N 40°48' E 013°26'0 0.0
2014-Jul-26 14:33N 40°48' E 013°26'0 0.0
2014-Jul-26 13:34N 40°48' E 013°26'0 0.0
2014-Jul-26 11:29N 40°48' E 013°26'0 0.0
2014-Jul-26 10:31N 40°48' E 013°26'0 0.0
2014-Jul-26 09:10N 40°48' E 013°26'913.9
2014-Jul-26 08:32N 40°57' E 013°28'20 6.5
2014-Jul-26 05:32N 41°15' E 013°37'0 0.0
2014-Jul-26 04:18N 41°15' E 013°37'0 0.0
2014-Jul-26 03:25N 41°15' E 013°37'0 0.0
2014-Jul-26 00:11N 41°15' E 013°37'0 0.0
2014-Jul-25 23:14N 41°15' E 013°37'0 0.0
2014-Jul-25 22:30N 41°15' E 013°37'0 0.0
2014-Jul-25 21:33N 41°15' E 013°37'21 4.0
2014-Jul-25 16:17N 40°55' E 013°29'0 0.0
2014-Jul-24 16:15N 40°55' E 013°29'2 0.2
2014-Jul-24 08:33N 40°57' E 013°28'1 0.1
2014-Jul-23 16:16N 40°55' E 013°29'8 1.1
2014-Jul-23 09:15N 40°48' E 013°26'29 2.1
2014-Jul-22 19:24N 41°15' E 013°37'20 6.7
2014-Jul-22 16:21N 40°56' E 013°29'8 1.1
2014-Jul-22 09:14N 40°48' E 013°26'1012.9
2014-Jul-22 08:26N 40°59' E 013°27'11 0.6
2014-Jul-21 14:18N 40°48' E 013°26'0 0.0
2014-Jul-21 13:19N 40°48' E 013°26'0 0.0
2014-Jul-21 10:16N 40°48' E 013°26'0 0.0
2014-Jul-21 09:33N 40°48' E 013°26'7 7.0
2014-Jul-21 08:33N 40°55' E 013°28'1514.8
2014-Jul-21 07:33N 41°09' E 013°34'7 2.1
2014-Jul-21 04:23N 41°15' E 013°37'0 0.0
2014-Jul-21 03:33N 41°15' E 013°37'0 0.0
2014-Jul-21 02:33N 41°15' E 013°37'0 0.0
2014-Jul-21 01:33N 41°15' E 013°37'0 0.0
2014-Jul-21 00:33N 41°15' E 013°37'0 0.0
2014-Jul-20 23:33N 41°15' E 013°37'0 0.0
2014-Jul-20 22:33N 41°15' E 013°37'0 0.0
2014-Jul-20 21:33N 41°15' E 013°37'0 0.0
2014-Jul-20 20:33N 41°15' E 013°37'0 0.0
2014-Jul-20 19:33N 41°15' E 013°37'0 0.0
2014-Jul-20 18:33N 41°15' E 013°37'2 2.2
2014-Jul-20 17:33N 41°13' E 013°37'1514.8
2014-Jul-20 16:33N 40°59' E 013°31'  
Track history (hours):
 
Tides and Currents Weather Stations Pressure Air Temp Water Temp Dewpoint Dewpoint Depression Visibility Wind Speed Wind Dir Waves Ship Positions

Tetide

Last reported at 2014-Jul-30 16:17 UTC. Time now 2014-Jul-31 21:40 UTC.
Position N 40°55' E 013°29'.

Length 70 m; draft 3.6 m.

Type: Passenger vessel. MMSI: 247043100.

Date/timePositionNaut miles runAvg speedWind from/ knotsBaromVisibWave heightAir tempDewpointWater temp
2014-Jul-30 16:17N 40°55' E 013°29'21 1.1
2014-Jul-29 21:27N 41°15' E 013°37'0 0.0
2014-Jul-29 18:34N 41°15' E 013°37'4 3.8
2014-Jul-29 17:26N 41°11' E 013°35'1314.4
2014-Jul-29 16:34N 40°59' E 013°30'  
2014-Jul-27 08:13N 40°59' E 013°31'17 3.2
2014-Jul-27 03:05N 41°15' E 013°37'0 0.0
2014-Jul-27 02:07N 41°15' E 013°37'0 0.0
2014-Jul-26 19:12N 41°15' E 013°37'0 0.0
2014-Jul-26 18:33N 41°15' E 013°37'1 1.4
2014-Jul-26 17:33N 41°14' E 013°37'1514.7
2014-Jul-26 16:33N 40°60' E 013°30'1211.7
2014-Jul-26 15:29N 40°48' E 013°26'0 0.0
2014-Jul-26 14:33N 40°48' E 013°26'0 0.0
2014-Jul-26 13:34N 40°48' E 013°26'0 0.0
2014-Jul-26 11:29N 40°48' E 013°26'0 0.0
2014-Jul-26 10:31N 40°48' E 013°26'0 0.0
2014-Jul-26 09:10N 40°48' E 013°26'913.9
2014-Jul-26 08:32N 40°57' E 013°28'20 6.5
2014-Jul-26 05:32N 41°15' E 013°37'0 0.0
2014-Jul-26 04:18N 41°15' E 013°37'0 0.0
2014-Jul-26 03:25N 41°15' E 013°37'0 0.0
2014-Jul-26 00:11N 41°15' E 013°37'0 0.0
2014-Jul-25 23:14N 41°15' E 013°37'0 0.0
2014-Jul-25 22:30N 41°15' E 013°37'0 0.0
2014-Jul-25 21:33N 41°15' E 013°37'21 4.0
2014-Jul-25 16:17N 40°55' E 013°29'0 0.0
2014-Jul-24 16:15N 40°55' E 013°29'2 0.2
2014-Jul-24 08:33N 40°57' E 013°28'1 0.1
2014-Jul-23 16:16N 40°55' E 013°29'8 1.1
2014-Jul-23 09:15N 40°48' E 013°26'29 2.1
2014-Jul-22 19:24N 41°15' E 013°37'20 6.7
2014-Jul-22 16:21N 40°56' E 013°29'8 1.1
2014-Jul-22 09:14N 40°48' E 013°26'1012.9
2014-Jul-22 08:26N 40°59' E 013°27'11 0.6
2014-Jul-21 14:18N 40°48' E 013°26'0 0.0
2014-Jul-21 13:19N 40°48' E 013°26'0 0.0
2014-Jul-21 10:16N 40°48' E 013°26'0 0.0
2014-Jul-21 09:33N 40°48' E 013°26'7 7.0
2014-Jul-21 08:33N 40°55' E 013°28'1514.8
2014-Jul-21 07:33N 41°09' E 013°34'7 2.1
2014-Jul-21 04:23N 41°15' E 013°37'0 0.0
2014-Jul-21 03:33N 41°15' E 013°37'0 0.0
2014-Jul-21 02:33N 41°15' E 013°37'0 0.0
2014-Jul-21 01:33N 41°15' E 013°37'0 0.0
2014-Jul-21 00:33N 41°15' E 013°37'0 0.0
2014-Jul-20 23:33N 41°15' E 013°37'0 0.0
2014-Jul-20 22:33N 41°15' E 013°37'0 0.0
2014-Jul-20 21:33N 41°15' E 013°37'0 0.0
2014-Jul-20 20:33N 41°15' E 013°37'0 0.0
2014-Jul-20 19:33N 41°15' E 013°37'0 0.0
2014-Jul-20 18:33N 41°15' E 013°37'2 2.2
2014-Jul-20 17:33N 41°13' E 013°37'1514.8
2014-Jul-20 16:33N 40°59' E 013°31'  

Dump ship's entire track history